Saint Louis, MO (63127)

7:39 AM CDT on July 30, 2016 (GMT -0500)
Sunset Hills | | Change Station

Elev 620 ft 38.56 °N, 90.42 °W | Updated 6 minutes ago

Scattered Clouds
Scattered Clouds
71.5 °F
Feels Like 71.5 °F
N
0.0
Wind Variable Wind from NW
Gusts 0.0 mph

Today
High -- | Low -- °F
--% Chance of Precip.
Yesterday
High -- | Low -- °F
Precip. -- in
Pressure 29.95 in
Visibility 10.0 miles
Clouds Few 3300 ft
Scattered Clouds 25000 ft
Dew Point 70 °F
Humidity 95%
Rainfall 0.00 in
Snow Depth Not available.
6:02 AM 8:13 PM
Waning Crescent, 13% visible
METAR KSTL 301151Z 28003KT 10SM FEW033 SCT250 23/19 A2998 RMK AO2 SLP142 T02280194 10244 20217 53009
Pressure 29.95 in
Visibility 10.0 miles
Clouds Few 3300 ft
Scattered Clouds 25000 ft
Dew Point 70 °F
Humidity 95%
Rainfall 0.00 in
Snow Depth Not available.
6:02 AM 8:13 PM
Waning Crescent, 13% visible
METAR KSTL 301151Z 28003KT 10SM FEW033 SCT250 23/19 A2998 RMK AO2 SLP142 T02280194 10244 20217 53009

10-Day Weather Forecast

Almanac

Astronomy

Jul. 30, 2016 Rise Set
Actual Time
Civil Twilight
Nautical Twilight
Astronomical Twilight
Moon
Length of Visible Light
Length of Day
Tomorrow will be .
, % of the Moon is Illuminated

Today's Extremes

State Highs State Lows

Community

WunderPhotos

Upload Photos

1,928,544 photos uploaded!

WunderBlog® & News

Nearby

Air Quality

  Air Quality AQ Index Pollutant
Not available.

Snow Depth

Station Depth Elevation

Earthquake Activity

City Distance Mag. Time & Date
Minimum magnitude displayed is 2.5.

Coastal Water Temperatures

Place Temperature

Stations

Nearby Weather Stations

Station Location Temp. Windchill Dew Point Humidity Wind Precip. Elev Updated Type
                   

Watches & Warnings

There are currently no watches in effect.